Time;durP1;ratioP1;P1;durP2;ratioP2;P2;SDS_P1;SDS_P2;PMS_P1;PMS_P2;Temp;Humidity;BMP_temperature;BMP_pressure;BME280_temperature;BME280_humidity;BME280_pressure;Samples;Min_cycle;Max_cycle;Signal;HPM_P1;HPM_P2
2021/12/26 00:01:30;;;;;;;14.73;9.52;;;3.90;99.00;;;;;;5127959;27;20393;-76
2021/12/26 00:03:56;;;;;;;12.40;7.28;;;3.80;99.20;;;;;;5130340;28;20485;-76
2021/12/26 00:06:25;;;;;;;17.00;9.93;;;3.70;99.90;;;;;;5131195;28;20019;-76
2021/12/26 00:08:53;;;;;;;13.23;7.63;;;3.80;99.70;;;;;;5130369;28;20064;-76
2021/12/26 00:11:19;;;;;;;11.10;6.25;;;3.80;99.70;;;;;;5131382;28;20027;-76
2021/12/26 00:13:46;;;;;;;13.75;6.38;;;3.80;99.80;;;;;;5131233;27;20038;-76
2021/12/26 00:16:12;;;;;;;11.57;7.25;;;3.70;99.80;;;;;;5123376;27;20038;-76
2021/12/26 00:18:45;;;;;;;10.80;6.20;;;3.80;99.50;;;;;;5130204;27;20038;-76
2021/12/26 00:21:11;;;;;;;11.43;5.65;;;4.10;99.00;;;;;;5131154;28;20031;-76
2021/12/26 00:23:37;;;;;;;11.50;5.55;;;4.10;99.00;;;;;;5131442;28;20066;-76
2021/12/26 00:26:03;;;;;;;10.45;5.70;;;4.10;99.00;;;;;;5130411;27;20077;-76
2021/12/26 00:28:29;;;;;;;11.25;6.68;;;4.00;98.90;;;;;;5130667;28;20031;-76
2021/12/26 00:30:55;;;;;;;11.13;7.28;;;3.70;99.30;;;;;;5132385;27;20031;-76
2021/12/26 00:33:21;;;;;;;14.05;8.38;;;3.40;99.50;;;;;;5125450;27;20397;-76
2021/12/26 00:35:47;;;;;;;12.75;7.90;;;3.40;99.80;;;;;;5134510;27;20031;-76
2021/12/26 00:38:13;;;;;;;13.18;8.18;;;3.50;99.80;;;;;;5134984;27;20114;-76
2021/12/26 00:40:39;;;;;;;13.00;6.80;;;3.40;99.90;;;;;;5133682;27;20039;-76
2021/12/26 00:43:04;;;;;;;12.45;6.80;;;3.40;99.90;;;;;;5134666;27;20393;-76
2021/12/26 00:45:31;;;;;;;9.63;5.63;;;3.30;99.90;;;;;;5134151;27;20105;-76
2021/12/26 00:47:56;;;;;;;7.40;5.03;;;3.40;99.90;;;;;;5134629;27;20030;-76
2021/12/26 00:50:29;;;;;;;12.38;6.47;;;3.50;99.90;;;;;;5132054;27;20031;-77
2021/12/26 00:52:56;;;;;;;11.05;5.85;;;3.60;99.80;;;;;;5133598;27;20027;-76
2021/12/26 00:55:23;;;;;;;14.18;7.05;;;3.50;99.80;;;;;;5133830;27;20067;-76
2021/12/26 00:57:49;;;;;;;14.55;8.00;;;3.50;99.70;;;;;;5135199;27;20027;-77
2021/12/26 01:00:22;;;;;;;10.85;6.05;;;3.40;99.80;;;;;;5133259;27;20447;-76
2021/12/26 01:02:49;;;;;;;11.87;6.30;;;3.40;99.90;;;;;;5130746;27;20027;-76
2021/12/26 01:05:16;;;;;;;12.98;6.93;;;3.30;99.90;;;;;;5130947;27;20023;-76
2021/12/26 01:10:11;;;;;;;8.63;5.20;;;3.20;99.90;;;;;;5133967;27;20066;-76
2021/12/26 01:12:39;;;;;;;11.45;6.10;;;3.30;99.90;;;;;;5133742;27;20027;-76
2021/12/26 01:15:09;;;;;;;9.50;5.18;;;3.30;99.90;;;;;;5128123;27;20019;-76
2021/12/26 01:17:36;;;;;;;9.50;5.28;;;3.40;99.90;;;;;;5134808;27;20354;-76
2021/12/26 01:20:08;;;;;;;12.30;5.20;;;3.30;99.90;;;;;;5133250;27;20043;-76
2021/12/26 01:22:34;;;;;;;11.07;6.18;;;3.30;99.90;;;;;;5131379;27;20059;-76
2021/12/26 01:24:59;;;;;;;10.73;6.22;;;3.30;99.90;;;;;;5133400;27;20043;-76
2021/12/26 01:27:27;;;;;;;10.80;6.20;;;3.30;99.90;;;;;;5132749;27;20076;-76
2021/12/26 01:29:53;;;;;;;9.90;4.75;;;3.30;99.90;;;;;;5134017;27;20041;-77
2021/12/26 01:32:20;;;;;;;9.43;4.85;;;3.40;99.90;;;;;;5130397;27;20548;-76
2021/12/26 01:34:47;;;;;;;10.32;6.28;;;3.50;99.90;;;;;;5115043;27;20404;-76
2021/12/26 01:37:13;;;;;;;8.73;5.20;;;3.50;99.70;;;;;;5134115;27;20091;-76
2021/12/26 01:39:39;;;;;;;8.88;5.32;;;3.50;99.80;;;;;;5128288;27;20042;-76
2021/12/26 01:42:08;;;;;;;10.05;5.43;;;3.40;99.80;;;;;;5128428;27;20401;-76
2021/12/26 01:44:34;;;;;;;10.38;6.72;;;3.50;99.80;;;;;;5133075;27;20031;-76
2021/12/26 01:47:01;;;;;;;10.88;6.43;;;3.40;99.90;;;;;;5133434;27;20016;-76
2021/12/26 01:49:30;;;;;;;12.75;7.43;;;3.40;99.90;;;;;;5133717;27;20035;-76
2021/12/26 01:51:59;;;;;;;12.88;7.68;;;3.20;99.90;;;;;;5133139;27;20024;-76
2021/12/26 01:54:33;;;;;;;13.02;7.68;;;3.00;99.90;;;;;;5114569;27;20377;-76
2021/12/26 01:57:00;;;;;;;;;;;2.90;99.90;;;;;;5112109;27;20036;-76
2021/12/26 01:59:27;;;;;;;13.02;7.57;;;2.80;99.90;;;;;;5133554;27;19915;-76
2021/12/26 02:01:55;;;;;;;9.57;5.60;;;2.80;99.90;;;;;;5132064;27;20015;-76
2021/12/26 02:04:23;;;;;;;11.60;6.10;;;2.70;99.90;;;;;;5133696;27;20062;-76
2021/12/26 02:06:49;;;;;;;13.27;6.00;;;2.60;99.90;;;;;;5133483;27;20159;-76
2021/12/26 02:09:16;;;;;;;10.73;5.70;;;2.90;99.90;;;;;;5132043;27;20065;-77
2021/12/26 02:11:41;;;;;;;15.93;7.47;;;3.00;99.90;;;;;;5133254;27;20473;-75
2021/12/26 02:14:07;;;;;;;11.57;7.47;;;3.20;99.90;;;;;;5130170;27;20114;-76
2021/12/26 02:16:34;;;;;;;13.27;7.20;;;3.20;99.90;;;;;;5132947;27;20418;-76
2021/12/26 02:19:00;;;;;;;10.93;5.72;;;3.10;99.90;;;;;;5113973;27;20138;-76
2021/12/26 02:21:56;;;;;;;9.73;5.35;;;3.20;99.90;;;;;;5133014;27;20030;-76
2021/12/26 02:24:28;;;;;;;10.15;6.13;;;3.20;99.90;;;;;;5132590;27;20473;-76
2021/12/26 02:29:42;;;;;;;8.70;5.30;;;3.30;99.90;;;;;;5132276;27;20041;-76
2021/12/26 02:32:09;;;;;;;8.27;4.97;;;3.50;99.90;;;;;;5130754;27;20118;-76
2021/12/26 02:34:35;;;;;;;9.85;4.80;;;3.60;99.90;;;;;;5132416;27;20019;-76
2021/12/26 02:37:01;;;;;;;10.00;5.22;;;3.50;99.90;;;;;;5131721;27;20066;-76
2021/12/26 02:39:26;;;;;;;10.50;4.97;;;3.50;99.90;;;;;;5134737;27;20071;-76
2021/12/26 02:41:52;;;;;;;11.00;5.30;;;3.40;99.90;;;;;;5130608;27;20027;-76
2021/12/26 02:44:18;;;;;;;8.45;5.38;;;3.50;99.90;;;;;;5131569;27;20027;-76
2021/12/26 02:46:44;;;;;;;10.75;5.25;;;3.50;99.90;;;;;;5131892;27;20023;-76
2021/12/26 02:49:10;;;;;;;10.23;5.28;;;3.40;99.90;;;;;;5129065;27;20449;-76
2021/12/26 02:51:36;;;;;;;10.23;6.28;;;3.40;99.90;;;;;;5131829;27;20027;-76
2021/12/26 02:54:03;;;;;;;9.82;4.90;;;3.40;99.90;;;;;;5131505;27;20034;-76
2021/12/26 02:56:29;;;;;;;9.75;5.28;;;3.20;99.90;;;;;;5131813;27;20397;-77
2021/12/26 02:58:56;;;;;;;12.18;4.75;;;3.30;99.90;;;;;;5132016;27;20023;-76
2021/12/26 03:01:24;;;;;;;9.73;6.03;;;3.40;99.90;;;;;;5132221;27;20035;-76
2021/12/26 03:03:50;;;;;;;9.75;5.13;;;3.40;99.90;;;;;;5130880;27;20031;-76
2021/12/26 03:06:24;;;;;;;9.85;4.97;;;3.30;99.90;;;;;;5122902;27;20031;-76
2021/12/26 03:08:51;;;;;;;11.00;4.97;;;3.20;99.90;;;;;;5131362;27;20042;-76
2021/12/26 03:11:17;;;;;;;12.30;4.70;;;3.20;99.90;;;;;;5132067;27;20770;-76
2021/12/26 03:13:43;;;;;;;9.25;4.50;;;3.30;99.90;;;;;;5131450;27;20056;-76
2021/12/26 03:16:09;;;;;;;9.63;4.95;;;3.20;99.90;;;;;;5131531;27;20460;-76
2021/12/26 03:18:35;;;;;;;9.38;4.80;;;3.00;99.90;;;;;;5131044;27;20019;-76
2021/12/26 03:21:01;;;;;;;12.48;6.88;;;2.90;99.90;;;;;;5131673;27;20046;-78
2021/12/26 03:23:27;;;;;;;10.13;6.13;;;2.90;99.90;;;;;;5125971;27;20019;-76
2021/12/26 03:26:02;;;;;;;10.63;6.00;;;2.90;99.90;;;;;;5131043;27;20034;-77
2021/12/26 03:28:28;;;;;;;;;;;2.90;99.90;;;;;;5128667;27;20042;-76
2021/12/26 03:30:55;;;;;;;7.68;5.10;;;3.00;99.90;;;;;;5122452;27;19911;-76
2021/12/26 03:33:21;;;;;;;10.25;4.93;;;2.90;99.90;;;;;;5131151;27;20026;-76
2021/12/26 03:35:47;;;;;;;7.57;4.38;;;3.00;99.90;;;;;;5131585;27;20084;-76
2021/12/26 03:38:14;;;;;;;8.55;4.00;;;3.00;99.90;;;;;;5128637;27;20019;-76
2021/12/26 03:40:41;;;;;;;8.32;4.40;;;3.00;99.90;;;;;;5130341;27;20035;-77
2021/12/26 03:43:08;;;;;;;10.63;5.78;;;3.00;99.90;;;;;;5130925;27;20027;-77
2021/12/26 03:45:34;;;;;;;11.00;6.07;;;3.00;99.90;;;;;;5131185;27;20019;-76
2021/12/26 03:48:00;;;;;;;10.55;6.07;;;2.80;99.90;;;;;;5130863;27;20027;-76
2021/12/26 03:50:28;;;;;;;8.57;5.25;;;2.80;99.90;;;;;;5130791;28;20023;-76
2021/12/26 03:52:56;;;;;;;12.02;5.70;;;2.80;99.90;;;;;;5130889;27;20473;-76
2021/12/26 03:55:25;;;;;;;8.88;5.55;;;2.70;99.90;;;;;;5125854;28;20105;-76
2021/12/26 03:57:52;;;;;;;11.93;5.68;;;2.60;99.90;;;;;;5130768;28;20106;-77
2021/12/26 04:00:18;;;;;;;11.30;6.05;;;2.40;99.90;;;;;;5126019;28;20047;-75
2021/12/26 04:02:45;;;;;;;11.55;7.22;;;2.30;99.90;;;;;;5126275;28;20366;-75
2021/12/26 04:05:13;;;;;;;11.23;7.13;;;2.40;99.90;;;;;;5123820;27;20096;-74
2021/12/26 04:07:40;;;;;;;9.70;5.93;;;2.50;99.90;;;;;;5127894;27;20035;-74
2021/12/26 04:10:07;;;;;;;10.25;6.07;;;2.60;99.90;;;;;;5126560;27;20039;-76
2021/12/26 04:12:37;;;;;;;10.63;5.93;;;2.60;99.90;;;;;;5121829;27;20035;-76
2021/12/26 04:15:08;;;;;;;9.73;6.72;;;2.90;99.90;;;;;;5126321;27;20065;-75
2021/12/26 04:17:34;;;;;;;12.75;7.50;;;2.70;99.90;;;;;;5110818;27;20454;-75
2021/12/26 04:20:00;;;;;;;12.48;7.63;;;2.70;99.90;;;;;;5125736;27;20039;-75
2021/12/26 04:22:26;;;;;;;9.85;6.10;;;2.50;99.90;;;;;;5128961;27;20050;-74
2021/12/26 04:24:51;;;;;;;9.18;5.55;;;2.60;99.90;;;;;;5130599;27;20035;-76
2021/12/26 04:27:17;;;;;;;7.60;3.97;;;2.60;99.90;;;;;;5129972;27;21015;-74
2021/12/26 04:29:43;;;;;;;7.22;4.25;;;2.70;99.90;;;;;;5128169;27;20077;-74
2021/12/26 04:32:09;;;;;;;11.88;5.38;;;2.90;99.90;;;;;;5130620;27;20055;-74
2021/12/26 04:34:35;;;;;;;10.52;5.53;;;3.10;99.90;;;;;;5127661;27;20027;-76
2021/12/26 04:37:00;;;;;;;11.40;6.25;;;3.30;99.90;;;;;;5126764;27;20458;-75
2021/12/26 04:39:26;;;;;;;10.70;6.25;;;3.30;99.90;;;;;;5130415;27;20047;-74
2021/12/26 04:41:52;;;;;;;12.32;5.95;;;3.40;99.90;;;;;;5129057;27;20023;-75
2021/12/26 04:44:18;;;;;;;7.97;4.93;;;3.40;99.90;;;;;;5130511;27;20473;-75
2021/12/26 04:46:43;;;;;;;11.57;5.28;;;3.30;99.90;;;;;;5129271;27;20011;-74
2021/12/26 04:49:09;;;;;;;9.57;6.03;;;3.20;99.90;;;;;;5129870;27;20027;-74
2021/12/26 04:51:35;;;;;;;12.57;6.30;;;3.20;99.90;;;;;;5129138;27;20038;-74
2021/12/26 04:54:01;;;;;;;9.93;5.70;;;3.30;99.90;;;;;;5130228;27;20057;-75
2021/12/26 04:56:27;;;;;;;8.93;4.93;;;3.30;99.90;;;;;;5129883;27;20035;-75
2021/12/26 04:58:52;;;;;;;8.07;5.00;;;3.20;99.90;;;;;;5126912;27;20038;-74
2021/12/26 05:01:18;;;;;;;20.52;8.05;;;3.20;99.90;;;;;;5123054;27;20032;-76
2021/12/26 05:03:44;;;;;;;19.85;9.15;;;3.10;99.90;;;;;;5123312;27;20134;-75
2021/12/26 05:06:10;;;;;;;20.15;9.65;;;2.90;99.90;;;;;;5126878;27;20495;-76
2021/12/26 05:08:36;;;;;;;11.60;7.38;;;2.80;99.90;;;;;;5126809;27;20042;-74
2021/12/26 05:11:02;;;;;;;12.35;6.28;;;2.70;99.90;;;;;;5126404;27;20039;-74
2021/12/26 05:13:27;;;;;;;14.27;7.35;;;2.80;99.90;;;;;;5126735;27;20024;-74
2021/12/26 05:15:53;;;;;;;10.85;6.50;;;2.70;99.90;;;;;;5125697;27;20023;-75
2021/12/26 05:18:19;;;;;;;17.27;8.75;;;2.60;99.90;;;;;;5126191;27;20038;-73
2021/12/26 05:20:45;;;;;;;12.45;6.93;;;2.40;99.90;;;;;;5124041;27;20069;-75
2021/12/26 05:23:11;;;;;;;9.00;5.65;;;2.50;99.90;;;;;;5126004;27;20055;-74
2021/12/26 05:25:37;;;;;;;10.13;5.72;;;2.50;99.90;;;;;;5126579;27;20031;-76
2021/12/26 05:28:04;;;;;;;14.32;6.28;;;2.70;99.90;;;;;;5126088;27;20035;-75
2021/12/26 05:30:30;;;;;;;14.00;7.28;;;2.60;99.90;;;;;;5125588;27;20060;-75
2021/12/26 05:32:56;;;;;;;13.32;7.32;;;2.40;99.90;;;;;;5124607;27;20019;-76
2021/12/26 05:35:22;;;;;;;14.18;7.47;;;2.20;99.90;;;;;;5124868;27;20038;-76
2021/12/26 05:37:49;;;;;;;12.07;7.07;;;2.30;99.90;;;;;;5123072;27;20110;-74
2021/12/26 05:40:16;;;;;;;10.95;6.47;;;2.30;99.90;;;;;;5125820;27;20039;-75
2021/12/26 05:42:42;;;;;;;8.38;5.63;;;2.30;99.90;;;;;;5126450;27;20425;-74
2021/12/26 05:45:10;;;;;;;12.07;5.70;;;2.40;99.90;;;;;;5126097;27;20083;-74
2021/12/26 05:47:36;;;;;;;12.63;5.88;;;2.40;99.90;;;;;;5122378;27;20018;-75
2021/12/26 05:50:04;;;;;;;11.50;6.45;;;2.30;99.90;;;;;;5124088;27;20035;-76
2021/12/26 05:52:30;;;;;;;13.23;6.03;;;2.30;99.90;;;;;;5126657;27;20031;-75
2021/12/26 05:54:56;;;;;;;12.63;5.97;;;2.40;99.90;;;;;;5117757;27;20107;-74
2021/12/26 05:57:23;;;;;;;10.50;5.50;;;2.50;99.90;;;;;;5125264;27;20031;-74
2021/12/26 05:59:49;;;;;;;11.02;7.03;;;2.30;99.90;;;;;;5124880;27;20035;-76
2021/12/26 06:02:14;;;;;;;9.38;5.88;;;2.30;99.90;;;;;;5125710;27;20044;-75
2021/12/26 06:04:40;;;;;;;9.50;5.28;;;2.20;99.90;;;;;;5125225;27;20519;-73
2021/12/26 06:07:07;;;;;;;9.77;6.40;;;2.30;99.90;;;;;;5124846;27;20019;-74
2021/12/26 06:09:33;;;;;;;14.27;6.82;;;2.20;99.90;;;;;;5125267;27;20043;-76
2021/12/26 06:11:59;;;;;;;13.80;7.55;;;2.10;99.90;;;;;;5119828;27;20543;-75
2021/12/26 06:14:24;;;;;;;15.90;8.05;;;2.10;99.90;;;;;;5125200;27;20027;-74
2021/12/26 06:16:50;;;;;;;12.25;6.97;;;2.10;99.90;;;;;;5124443;27;20027;-75
2021/12/26 06:19:16;;;;;;;13.27;6.93;;;2.10;99.90;;;;;;5124973;27;20483;-73
2021/12/26 06:21:41;;;;;;;15.50;5.80;;;2.10;99.90;;;;;;5125364;27;20416;-75
2021/12/26 06:24:08;;;;;;;14.55;6.60;;;2.10;99.90;;;;;;5123345;27;20023;-74
2021/12/26 06:26:34;;;;;;;9.88;5.25;;;2.10;99.90;;;;;;5124700;27;20754;-76
2021/12/26 06:29:00;;;;;;;8.65;4.82;;;2.30;99.90;;;;;;5119614;27;20046;-73
2021/12/26 06:31:26;;;;;;;10.85;5.97;;;2.30;99.90;;;;;;5124640;27;20538;-75
2021/12/26 06:33:52;;;;;;;9.20;5.80;;;2.30;99.90;;;;;;5124315;27;20038;-75
2021/12/26 06:36:18;;;;;;;11.40;5.68;;;2.30;99.90;;;;;;5123866;27;20031;-73
2021/12/26 06:38:45;;;;;;;9.57;4.78;;;2.50;99.90;;;;;;5123847;27;20522;-75
2021/12/26 06:41:12;;;;;;;11.77;5.60;;;2.60;99.90;;;;;;5124894;27;20031;-75
2021/12/26 06:43:39;;;;;;;10.82;5.63;;;2.70;99.90;;;;;;5123890;27;20546;-76
2021/12/26 06:46:06;;;;;;;10.10;6.10;;;2.70;99.90;;;;;;5121429;27;20918;-75
2021/12/26 06:48:33;;;;;;;10.60;5.88;;;2.70;99.90;;;;;;5124991;27;20046;-76
2021/12/26 06:51:00;;;;;;;10.95;5.78;;;2.60;99.90;;;;;;5123255;27;20023;-74
2021/12/26 06:53:26;;;;;;;13.90;9.10;;;2.60;99.90;;;;;;5121080;27;20037;-76
2021/12/26 06:55:53;;;;;;;10.15;6.07;;;2.30;99.90;;;;;;5123672;27;20114;-76
2021/12/26 06:58:19;;;;;;;10.40;7.35;;;2.30;99.90;;;;;;5125034;27;20038;-74
2021/12/26 07:00:45;;;;;;;11.65;7.35;;;2.10;99.90;;;;;;5123873;27;20041;-73
2021/12/26 07:03:11;;;;;;;12.38;5.43;;;1.90;99.90;;;;;;5121573;27;20031;-75
2021/12/26 07:05:37;;;;;;;11.48;5.82;;;1.90;99.90;;;;;;5124335;27;20027;-75
2021/12/26 07:08:03;;;;;;;8.93;5.55;;;2.00;99.90;;;;;;5123699;27;20043;-76
2021/12/26 07:10:29;;;;;;;9.55;5.45;;;2.40;99.90;;;;;;5125112;27;20592;-74
2021/12/26 07:12:54;;;;;;;15.10;7.93;;;2.50;99.90;;;;;;5124093;27;20026;-74
2021/12/26 07:15:20;;;;;;;22.63;12.88;;;2.00;99.90;;;;;;5124867;27;20035;-74
2021/12/26 07:17:46;;;;;;;111.22;57.05;;;1.80;99.90;;;;;;5123931;27;20029;-75
2021/12/26 07:20:16;;;;;;;64.95;36.08;;;1.80;99.90;;;;;;5115235;27;20043;-75
2021/12/26 07:22:44;;;;;;;28.80;16.15;;;1.40;99.90;;;;;;5124655;27;20492;-73
2021/12/26 07:25:10;;;;;;;19.08;12.13;;;1.70;99.90;;;;;;5123615;27;20021;-76
2021/12/26 07:27:36;;;;;;;15.82;9.95;;;1.60;99.90;;;;;;5124092;27;20087;-74
2021/12/26 07:30:04;;;;;;;12.60;7.57;;;1.60;99.90;;;;;;5124345;27;20035;-76
2021/12/26 07:32:31;;;;;;;12.13;7.00;;;1.90;99.90;;;;;;5122296;27;20118;-74
2021/12/26 07:34:57;;;;;;;13.00;7.15;;;2.10;99.90;;;;;;5124399;27;20023;-75
2021/12/26 07:37:24;;;;;;;12.63;7.75;;;2.20;99.90;;;;;;5116804;27;20430;-75
2021/12/26 07:39:49;;;;;;;12.75;6.00;;;2.30;99.90;;;;;;5122508;27;20038;-76
2021/12/26 07:42:15;;;;;;;10.77;6.25;;;2.30;99.90;;;;;;5123393;27;20035;-74
2021/12/26 07:44:41;;;;;;;11.45;5.70;;;2.40;99.90;;;;;;5123097;27;20016;-75
2021/12/26 07:47:07;;;;;;;10.55;6.15;;;2.40;99.90;;;;;;5110947;28;20042;-75
2021/12/26 07:49:33;;;;;;;12.95;8.13;;;2.40;99.90;;;;;;5123869;27;20027;-74
2021/12/26 07:51:59;;;;;;;15.27;7.28;;;2.20;99.90;;;;;;5122858;27;20023;-76
2021/12/26 07:54:25;;;;;;;14.00;7.65;;;2.20;99.90;;;;;;5121048;28;20021;-75
2021/12/26 07:56:53;;;;;;;11.32;6.90;;;2.20;99.90;;;;;;5129757;27;20060;-74
2021/12/26 07:59:19;;;;;;;11.10;6.13;;;2.20;99.90;;;;;;5123529;28;20030;-76
2021/12/26 08:01:45;;;;;;;13.95;7.35;;;2.30;99.90;;;;;;5114092;28;20020;-74
2021/12/26 08:04:13;;;;;;;12.73;6.97;;;2.20;99.90;;;;;;5119834;28;20100;-76
2021/12/26 08:06:39;;;;;;;9.73;5.88;;;2.20;99.90;;;;;;5123687;28;20035;-73
2021/12/26 08:09:07;;;;;;;9.10;5.55;;;2.20;99.90;;;;;;5123600;28;20174;-73
2021/12/26 08:11:33;;;;;;;10.60;7.10;;;2.30;99.90;;;;;;5122280;27;20038;-76
2021/12/26 08:13:59;;;;;;;14.65;6.78;;;2.20;99.90;;;;;;5123118;28;20023;-76
2021/12/26 08:16:29;;;;;;;11.82;6.60;;;2.20;99.90;;;;;;5124185;28;20110;-75
2021/12/26 08:18:55;;;;;;;9.20;5.50;;;2.20;99.90;;;;;;5122070;28;20023;-76
2021/12/26 08:21:22;;;;;;;11.63;7.25;;;2.40;99.90;;;;;;5119888;28;20572;-75
2021/12/26 08:23:48;;;;;;;12.88;6.63;;;2.30;99.90;;;;;;5087851;28;20040;-75
2021/12/26 08:26:13;;;;;;;13.45;8.52;;;2.40;99.90;;;;;;5124406;28;20719;-76
2021/12/26 08:28:39;;;;;;;11.55;7.35;;;2.70;99.90;;;;;;5124969;28;20447;-76
2021/12/26 08:31:05;;;;;;;9.63;6.60;;;2.80;99.90;;;;;;5124755;28;20042;-73
2021/12/26 08:33:31;;;;;;;10.95;6.95;;;2.80;99.90;;;;;;5123163;28;20062;-75
2021/12/26 08:35:58;;;;;;;12.73;7.70;;;2.90;99.90;;;;;;5124455;28;20015;-73
2021/12/26 08:38:24;;;;;;;13.80;7.55;;;2.80;99.90;;;;;;5123972;28;20027;-75
2021/12/26 08:40:54;;;;;;;11.98;7.20;;;2.80;99.90;;;;;;5124374;28;20031;-75
2021/12/26 08:43:21;;;;;;;10.38;6.20;;;2.90;99.90;;;;;;5124292;28;20031;-75
2021/12/26 08:45:48;;;;;;;11.10;6.85;;;3.00;99.90;;;;;;5123831;28;20023;-75
2021/12/26 08:48:14;;;;;;;37.35;18.63;;;3.20;99.90;;;;;;5124677;28;20027;-77
2021/12/26 08:50:41;;;;;;;50.72;25.40;;;3.40;99.90;;;;;;5125114;27;20033;-75
2021/12/26 08:53:08;;;;;;;42.58;23.33;;;3.40;99.90;;;;;;5128320;27;20533;-74
2021/12/26 08:55:34;;;;;;;15.70;9.07;;;3.30;99.90;;;;;;5128014;27;20027;-74
2021/12/26 08:58:00;;;;;;;16.10;9.65;;;3.30;99.90;;;;;;5128265;27;20035;-73
2021/12/26 09:00:27;;;;;;;16.77;9.82;;;3.20;99.90;;;;;;5128036;27;20180;-74
2021/12/26 09:02:53;;;;;;;14.80;9.05;;;3.00;99.90;;;;;;5127716;27;20023;-74
2021/12/26 09:05:20;;;;;;;15.10;9.40;;;3.00;99.90;;;;;;5127276;27;20031;-74
2021/12/26 09:07:45;;;;;;;17.60;8.35;;;3.10;99.90;;;;;;5127307;27;20043;-74
2021/12/26 09:10:13;;;;;;;13.50;7.95;;;3.20;99.90;;;;;;5127186;27;20400;-73
2021/12/26 09:12:41;;;;;;;13.77;8.23;;;3.40;99.90;;;;;;5127730;27;20361;-74
2021/12/26 09:15:09;;;;;;;13.48;7.22;;;3.40;99.90;;;;;;5109414;27;20030;-73
2021/12/26 09:17:34;;;;;;;10.82;7.25;;;3.40;99.90;;;;;;5125630;27;20101;-74
2021/12/26 09:20:00;;;;;;;12.57;8.30;;;3.60;99.90;;;;;;5127803;27;20939;-74
2021/12/26 09:22:26;;;;;;;14.13;7.80;;;3.60;99.90;;;;;;5126953;27;20034;-75
2021/12/26 09:24:52;;;;;;;14.32;10.10;;;3.80;99.90;;;;;;5127414;27;20347;-74
2021/12/26 09:27:18;;;;;;;20.17;12.13;;;3.60;99.90;;;;;;5128226;27;20126;-75
2021/12/26 09:29:44;;;;;;;18.65;11.93;;;3.30;99.90;;;;;;5127101;27;20028;-74
2021/12/26 09:32:10;;;;;;;20.95;12.63;;;3.20;99.90;;;;;;5127581;27;20057;-75
2021/12/26 09:34:36;;;;;;;19.77;11.73;;;3.10;99.90;;;;;;5127297;27;20030;-74
2021/12/26 09:37:05;;;;;;;20.38;12.65;;;3.10;99.90;;;;;;5127399;27;20125;-75
2021/12/26 09:39:31;;;;;;;16.45;11.65;;;3.20;99.90;;;;;;5126901;27;20462;-74
2021/12/26 09:41:57;;;;;;;17.83;11.48;;;3.30;99.90;;;;;;5126953;27;20054;-74
2021/12/26 09:44:23;;;;;;;18.02;10.43;;;3.40;99.90;;;;;;5127586;27;20431;-75
2021/12/26 09:46:49;;;;;;;17.33;10.23;;;3.50;99.90;;;;;;5126668;27;20027;-73
2021/12/26 09:49:15;;;;;;;13.52;8.63;;;3.50;99.90;;;;;;5127699;27;20027;-74
2021/12/26 09:51:41;;;;;;;14.30;9.35;;;3.50;99.90;;;;;;5126916;27;20666;-74
2021/12/26 09:54:08;;;;;;;11.60;8.27;;;3.60;99.90;;;;;;5127477;27;20411;-73
2021/12/26 09:56:35;;;;;;;13.52;7.90;;;3.60;99.90;;;;;;5127333;27;20091;-75
2021/12/26 09:59:07;;;;;;;17.08;8.52;;;3.70;99.90;;;;;;5127768;27;20027;-75
2021/12/26 10:01:43;;;;;;;16.35;9.48;;;3.80;99.90;;;;;;5126878;27;20560;-73
2021/12/26 10:04:18;;;;;;;20.10;12.60;;;3.80;99.90;;;;;;5126242;27;20442;-74
2021/12/26 10:06:45;;;;;;;21.80;12.73;;;3.50;99.90;;;;;;5126646;27;20027;-74
2021/12/26 10:09:11;;;;;;;18.27;11.57;;;3.40;99.90;;;;;;5126841;27;20058;-76
2021/12/26 10:11:46;;;;;;;21.75;12.20;;;3.40;99.90;;;;;;5126412;27;20034;-75
2021/12/26 10:14:15;;;;;;;20.92;11.32;;;3.40;99.90;;;;;;5126505;27;20023;-74
2021/12/26 10:16:44;;;;;;;18.05;11.10;;;3.60;99.90;;;;;;5126624;27;20035;-75
2021/12/26 10:19:11;;;;;;;24.27;14.60;;;4.10;99.90;;;;;;5125946;27;20027;-74
2021/12/26 10:21:50;;;;;;;37.53;22.50;;;4.10;99.90;;;;;;5108468;27;20393;-74
2021/12/26 10:24:21;;;;;;;29.85;17.55;;;4.00;99.90;;;;;;5126845;27;20093;-75
2021/12/26 10:26:48;;;;;;;21.17;14.05;;;3.90;99.90;;;;;;5126616;27;20023;-75
2021/12/26 10:29:19;;;;;;;23.15;15.13;;;3.80;99.90;;;;;;5128292;27;20019;-77
2021/12/26 10:32:10;;;;;;;26.98;16.95;;;3.80;99.90;;;;;;5128476;27;20027;-74
2021/12/26 10:34:35;;;;;;;21.48;14.15;;;4.20;99.90;;;;;;5127198;27;20031;-74
2021/12/26 10:37:04;;;;;;;16.05;11.13;;;4.20;99.90;;;;;;5129181;27;20027;-75
2021/12/26 10:39:34;;;;;;;19.38;13.75;;;4.10;99.90;;;;;;5129439;27;20054;-74
2021/12/26 10:42:04;;;;;;;29.65;20.10;;;4.10;99.90;;;;;;5129666;27;20050;-73
2021/12/26 10:44:33;;;;;;;22.08;15.65;;;4.20;99.90;;;;;;5110622;27;20035;-73
2021/12/26 10:47:09;;;;;;;18.70;12.20;;;4.60;99.90;;;;;;5129224;27;20026;-73
2021/12/26 10:49:48;;;;;;;17.40;11.75;;;4.50;99.90;;;;;;5127281;27;20008;-72
2021/12/26 10:52:41;;;;;;;18.75;11.60;;;4.60;99.90;;;;;;5128568;27;20549;-74
2021/12/26 10:55:11;;;;;;;13.45;9.65;;;4.60;99.90;;;;;;5128420;27;20054;-73
2021/12/26 10:57:43;;;;;;;14.50;9.40;;;4.50;99.90;;;;;;5129393;27;20015;-73
2021/12/26 11:00:29;;;;;;;16.33;10.57;;;4.60;99.90;;;;;;5129968;27;20042;-73
2021/12/26 11:03:01;;;;;;;20.40;12.70;;;4.80;99.90;;;;;;5129240;27;20027;-76
2021/12/26 11:05:35;;;;;;;16.35;10.93;;;4.90;99.90;;;;;;5110667;27;20842;-75
2021/12/26 11:08:03;;;;;;;21.20;11.20;;;4.90;99.90;;;;;;5129002;27;20039;-73
2021/12/26 11:10:32;;;;;;;20.40;11.75;;;4.80;99.90;;;;;;5129167;27;20034;-72
2021/12/26 11:13:02;;;;;;;18.45;12.68;;;4.90;99.90;;;;;;5128714;27;20027;-73
2021/12/26 11:15:38;;;;;;;18.90;13.68;;;5.10;99.90;;;;;;5128866;27;20027;-73
2021/12/26 11:18:08;;;;;;;17.98;10.73;;;5.30;99.90;;;;;;5129157;27;20031;-73
2021/12/26 11:20:44;;;;;;;14.05;9.10;;;5.30;99.90;;;;;;5129244;27;20038;-73
2021/12/26 11:23:25;;;;;;;22.40;10.25;;;5.20;99.90;;;;;;5128872;27;20029;-73
2021/12/26 11:25:54;;;;;;;16.23;10.07;;;5.20;99.90;;;;;;5128741;27;20026;-73
2021/12/26 11:28:26;;;;;;;23.33;10.32;;;5.30;99.90;;;;;;5128802;27;20032;-73
2021/12/26 11:30:54;;;;;;;15.25;9.40;;;5.30;99.90;;;;;;5128150;27;20011;-73
2021/12/26 11:33:21;;;;;;;15.25;9.65;;;5.20;99.90;;;;;;5125853;27;20019;-73
2021/12/26 11:35:48;;;;;;;17.40;10.32;;;5.20;99.90;;;;;;5125630;27;20041;-73
2021/12/26 11:38:18;;;;;;;15.07;9.98;;;5.20;99.90;;;;;;5126215;27;20400;-73
2021/12/26 11:40:47;;;;;;;16.33;10.95;;;5.30;99.90;;;;;;5128436;27;20031;-73
2021/12/26 11:43:37;;;;;;;17.30;10.93;;;5.20;99.90;;;;;;5128487;27;20030;-73
2021/12/26 11:46:38;;;;;;;18.90;10.52;;;5.40;99.90;;;;;;5128645;27;20515;-73
2021/12/26 11:49:33;;;;;;;13.07;9.48;;;5.50;99.90;;;;;;5081124;27;20411;-72
2021/12/26 11:52:23;;;;;;;20.58;10.10;;;5.50;99.90;;;;;;5128262;27;20107;-73
2021/12/26 11:55:03;;;;;;;18.38;10.40;;;5.70;99.90;;;;;;5127539;28;20068;-73
2021/12/26 11:57:52;;;;;;;16.20;9.75;;;5.70;99.90;;;;;;5127467;28;20027;-72
2021/12/26 12:00:33;;;;;;;14.77;9.82;;;5.70;99.90;;;;;;5128043;28;20063;-72
2021/12/26 12:03:04;;;;;;;14.52;9.43;;;5.80;99.90;;;;;;5109733;28;20451;-72
2021/12/26 12:05:40;;;;;;;15.68;9.40;;;5.80;99.80;;;;;;5125601;28;20036;-72
2021/12/26 12:08:08;;;;;;;15.48;9.25;;;5.80;99.70;;;;;;5125065;28;20046;-73
2021/12/26 12:10:42;;;;;;;14.60;9.90;;;5.90;99.90;;;;;;5128303;28;20637;-74
2021/12/26 12:13:31;;;;;;;18.13;9.60;;;5.90;99.90;;;;;;5127915;28;20537;-73
2021/12/26 12:16:05;;;;;;;13.35;8.00;;;6.10;99.60;;;;;;5127899;28;20023;-73
2021/12/26 12:18:37;;;;;;;15.27;8.85;;;6.20;99.50;;;;;;5128289;28;20027;-73
2021/12/26 12:21:17;;;;;;;15.55;8.32;;;6.20;99.40;;;;;;5128481;28;20508;-73
2021/12/26 12:24:09;;;;;;;12.15;8.02;;;6.30;99.30;;;;;;5128267;28;20088;-73
2021/12/26 12:27:20;;;;;;;14.23;8.55;;;6.30;99.40;;;;;;5128810;27;20023;-74
2021/12/26 12:29:50;;;;;;;15.02;9.20;;;6.40;99.40;;;;;;5025096;28;20021;-74
2021/12/26 12:32:22;;;;;;;16.80;9.18;;;6.60;99.30;;;;;;5111218;27;20063;-73
2021/12/26 12:35:05;;;;;;;14.27;9.50;;;6.70;99.00;;;;;;5110559;27;20072;-74
2021/12/26 12:37:41;;;;;;;15.40;9.25;;;6.60;98.90;;;;;;5128733;27;20031;-73
2021/12/26 12:40:19;;;;;;;19.60;11.63;;;6.30;99.00;;;;;;5128549;27;20027;-73
2021/12/26 12:43:02;;;;;;;17.50;11.75;;;6.50;99.30;;;;;;5128801;27;20589;-73
2021/12/26 12:45:28;;;;;;;16.73;9.98;;;6.60;99.20;;;;;;5128896;27;20027;-74
2021/12/26 12:48:22;;;;;;;13.35;8.75;;;6.80;99.20;;;;;;5128775;27;20042;-73
2021/12/26 12:50:49;;;;;;;13.60;8.95;;;6.90;98.90;;;;;;5129060;27;20058;-74
2021/12/26 12:53:39;;;;;;;11.13;7.55;;;6.50;98.80;;;;;;5128590;27;20024;-73
2021/12/26 12:56:06;;;;;;;13.60;8.55;;;6.40;99.00;;;;;;5128504;27;20361;-73
2021/12/26 12:58:32;;;;;;;13.70;9.07;;;6.20;98.70;;;;;;5128696;27;20050;-74
2021/12/26 13:01:02;;;;;;;13.88;7.80;;;6.30;98.90;;;;;;5131065;27;20594;-73